Time;durP1;ratioP1;P1;durP2;ratioP2;P2;SDS_P1;SDS_P2;PMS_P1;PMS_P2;Temp;Humidity;BMP_temperature;BMP_pressure;BME280_temperature;BME280_humidity;BME280_pressure;Samples;Min_cycle;Max_cycle;Signal;HPM_P1;HPM_P2
2022/09/06 00:00:10;;;;;;;3.88;0.85;;;;;;;9.40;67.29;99642.69;5034433;28;20049;-68
2022/09/06 00:02:38;;;;;;;1.48;0.80;;;;;;;9.34;66.63;99644.81;5033586;28;20049;-68
2022/09/06 00:05:07;;;;;;;1.70;1.05;;;;;;;9.24;66.41;99643.13;5033795;28;20140;-68
2022/09/06 00:07:34;;;;;;;2.42;0.98;;;;;;;9.18;67.09;99641.66;5033841;28;20053;-69
2022/09/06 00:10:01;;;;;;;1.75;1.15;;;;;;;9.15;66.38;99647.84;5034122;28;20045;-68
2022/09/06 00:12:29;;;;;;;2.17;1.33;;;;;;;9.16;66.38;99637.56;5032160;28;20053;-69
2022/09/06 00:14:56;;;;;;;2.45;1.42;;;;;;;9.15;66.77;99645.06;5034136;28;20049;-72
2022/09/06 00:17:23;;;;;;;2.08;1.30;;;;;;;9.10;66.71;99641.63;5033453;28;20053;-68
2022/09/06 00:19:50;;;;;;;2.53;1.45;;;;;;;8.99;66.89;99629.16;5033784;28;20050;-68
2022/09/06 00:22:17;;;;;;;2.00;1.25;;;;;;;9.03;67.23;99632.97;5033510;28;20140;-72
2022/09/06 00:24:46;;;;;;;3.30;1.40;;;;;;;9.08;66.73;99647.50;5033369;28;20052;-69
2022/09/06 00:27:13;;;;;;;2.30;1.20;;;;;;;9.12;66.17;99636.59;5033650;28;20049;-68
2022/09/06 00:29:40;;;;;;;2.72;1.00;;;;;;;9.14;66.42;99639.84;5033276;28;20140;-68
2022/09/06 00:32:07;;;;;;;2.25;1.10;;;;;;;9.12;66.28;99637.38;5047284;28;20045;-69
2022/09/06 00:34:35;;;;;;;2.10;1.10;;;;;;;9.16;66.05;99632.03;5053297;28;20103;-68
2022/09/06 00:37:01;;;;;;;1.70;1.08;;;;;;;9.18;66.68;99638.06;5052050;28;20079;-70
2022/09/06 00:39:31;;;;;;;1.52;1.00;;;;;;;9.15;66.33;99631.19;5053370;28;20462;-73
2022/09/06 00:41:57;;;;;;;2.60;0.80;;;;;;;9.17;66.33;99634.47;5037360;28;20045;-71
2022/09/06 00:44:24;;;;;;;2.08;0.85;;;;;;;9.19;66.16;99643.31;5033259;28;20045;-71
2022/09/06 00:46:53;;;;;;;1.55;0.90;;;;;;;9.13;66.19;99632.66;5033248;28;20408;-70
2022/09/06 00:49:34;;;;;;;0.90;0.65;;;;;;;9.12;66.09;99640.16;5032991;28;20079;-72
2022/09/06 00:52:10;;;;;;;1.95;0.90;;;;;;;9.11;66.18;99640.47;5033015;28;20099;-70
2022/09/06 00:54:38;;;;;;;0.93;0.57;;;;;;;9.16;65.44;99648.66;5032820;28;20060;-71
2022/09/06 00:57:05;;;;;;;1.77;0.75;;;;;;;9.11;65.27;99644.09;5033253;28;20049;-70
2022/09/06 00:59:35;;;;;;;1.70;1.58;;;;;;;9.06;65.61;99641.44;5033287;28;20060;-71
2022/09/06 01:02:05;;;;;;;1.23;0.57;;;;;;;8.97;65.78;99635.03;5031409;28;20397;-71
2022/09/06 01:04:33;;;;;;;1.50;0.80;;;;;;;8.95;65.48;99644.84;5032473;28;20813;-75
2022/09/06 01:07:25;;;;;;;3.00;0.95;;;;;;;9.00;65.51;99634.41;5032601;28;20149;-71
2022/09/06 01:10:00;;;;;;;1.25;0.75;;;;;;;9.05;65.69;99630.66;5032833;28;20619;-71
2022/09/06 01:13:02;;;;;;;4.35;0.80;;;;;;;9.07;65.13;99626.44;5032734;28;20041;-71
2022/09/06 01:16:06;;;;;;;2.63;0.95;;;;;;;9.07;65.27;99634.78;5032457;28;20049;-70
2022/09/06 01:18:45;;;;;;;2.50;0.90;;;;;;;9.09;65.19;99632.47;5032316;28;20061;-71
2022/09/06 01:21:18;;;;;;;3.97;1.42;;;;;;;9.02;65.82;99645.19;5032405;28;20527;-70
2022/09/06 01:24:16;;;;;;;2.13;1.10;;;;;;;8.99;65.87;99641.09;5032468;28;20049;-71
2022/09/06 01:27:25;;;;;;;3.80;1.02;;;;;;;8.98;66.48;99639.47;5032255;28;20050;-67
2022/09/06 01:30:04;;;;;;;1.20;0.77;;;;;;;8.89;66.26;99629.47;5032432;28;20067;-69
2022/09/06 01:32:49;;;;;;;2.20;1.13;;;;;;;8.92;66.62;99639.91;5032312;28;20398;-71
2022/09/06 01:35:34;;;;;;;1.15;0.80;;;;;;;8.93;66.50;99645.16;5032651;28;20048;-71
2022/09/06 01:38:03;;;;;;;1.40;0.95;;;;;;;8.91;66.57;99641.88;5031251;28;20057;-71
2022/09/06 01:40:34;;;;;;;1.38;0.88;;;;;;;8.93;66.67;99647.09;5032851;28;20404;-73
2022/09/06 01:43:09;;;;;;;2.40;1.08;;;;;;;8.95;67.02;99644.84;5032712;28;20076;-70
2022/09/06 01:45:58;;;;;;;1.95;0.90;;;;;;;8.99;66.91;99643.03;5032377;28;20033;-71
2022/09/06 01:48:46;;;;;;;2.00;1.02;;;;;;;9.00;66.60;99639.16;5032113;28;20413;-71
2022/09/06 01:51:32;;;;;;;3.45;1.20;;;;;;;8.99;66.65;99646.66;5031064;28;20045;-71
2022/09/06 01:54:28;;;;;;;1.88;1.08;;;;;;;8.96;66.56;99644.50;5032525;28;20151;-71
2022/09/06 01:57:15;;;;;;;3.53;1.20;;;;;;;8.96;66.92;99646.47;5031371;28;20128;-71
2022/09/06 02:00:04;;;;;;;2.28;1.10;;;;;;;9.00;66.70;99642.72;5030734;28;20060;-71
2022/09/06 02:02:49;;;;;;;1.67;1.02;;;;;;;8.97;66.53;99645.31;5031955;28;20041;-70
2022/09/06 02:05:28;;;;;;;1.42;1.10;;;;;;;8.90;66.68;99645.78;5032453;28;20504;-70
2022/09/06 02:08:03;;;;;;;2.20;1.00;;;;;;;8.84;67.40;99641.50;5030673;28;20064;-71
2022/09/06 02:10:56;;;;;;;4.25;1.25;;;;;;;8.85;66.52;99651.47;5032265;28;20051;-71
2022/09/06 02:13:28;;;;;;;1.77;1.10;;;;;;;8.88;66.60;99650.00;5039292;28;20049;-70
2022/09/06 02:16:05;;;;;;;2.05;1.10;;;;;;;8.90;66.88;99651.34;5051810;28;20133;-71
2022/09/06 02:18:57;;;;;;;2.30;1.20;;;;;;;8.92;66.75;99651.03;5055540;28;20065;-72
2022/09/06 02:21:30;;;;;;;2.28;1.20;;;;;;;8.90;66.76;99645.78;5055782;28;20057;-72
2022/09/06 02:24:06;;;;;;;2.42;1.30;;;;;;;8.89;67.05;99654.44;5055502;28;20516;-72
2022/09/06 02:26:37;;;;;;;3.03;1.25;;;;;;;8.87;67.15;99651.97;5055358;28;20051;-71
2022/09/06 02:29:04;;;;;;;2.00;1.20;;;;;;;8.83;66.81;99659.28;5055816;28;20132;-74
2022/09/06 02:31:37;;;;;;;3.25;1.30;;;;;;;8.83;66.88;99666.81;5055494;28;20139;-74
2022/09/06 02:34:05;;;;;;;2.85;1.40;;;;;;;8.81;66.82;99664.34;5055792;28;20053;-71
2022/09/06 02:36:35;;;;;;;1.80;1.25;;;;;;;8.83;67.14;99658.47;5055252;28;20048;-71
2022/09/06 02:39:04;;;;;;;1.95;1.30;;;;;;;8.85;67.06;99661.72;5055502;28;20154;-70
2022/09/06 02:41:31;;;;;;;2.40;1.30;;;;;;;8.87;66.86;99660.28;5055471;28;20562;-75
2022/09/06 02:43:58;;;;;;;1.88;1.05;;;;;;;8.88;66.95;99656.38;5055520;28;20041;-71
2022/09/06 02:46:25;;;;;;;2.50;1.38;;;;;;;8.90;66.99;99667.97;5055605;28;20493;-70
2022/09/06 02:48:52;;;;;;;5.47;1.30;;;;;;;8.86;67.35;99661.41;5055368;28;20161;-70
2022/09/06 02:51:19;;;;;;;2.70;1.27;;;;;;;8.85;66.63;99658.97;5055253;28;20495;-68
2022/09/06 02:53:46;;;;;;;2.55;1.33;;;;;;;8.86;67.43;99666.16;5055315;28;20056;-69
2022/09/06 02:56:13;;;;;;;9.48;1.48;;;;;;;8.91;67.07;99658.50;5055095;28;20128;-69
2022/09/06 02:58:40;;;;;;;2.85;1.20;;;;;;;8.92;67.01;99660.13;5055448;28;20423;-68
2022/09/06 03:01:07;;;;;;;3.25;1.63;;;;;;;8.94;67.06;99660.66;5054765;28;20049;-68
2022/09/06 03:03:35;;;;;;;2.75;1.40;;;;;;;8.98;67.33;99658.91;5055185;28;20045;-72
2022/09/06 03:06:02;;;;;;;3.22;1.20;;;;;;;8.98;66.61;99653.34;5054793;28;20069;-71
2022/09/06 03:08:32;;;;;;;1.70;1.20;;;;;;;8.95;66.96;99665.06;5055021;28;20053;-71
2022/09/06 03:11:00;;;;;;;2.45;1.10;;;;;;;8.89;66.54;99657.19;5055042;28;20114;-68
2022/09/06 03:13:27;;;;;;;2.40;1.30;;;;;;;8.89;66.56;99665.53;5045624;28;20106;-69
2022/09/06 03:15:58;;;;;;;2.17;1.10;;;;;;;8.83;66.46;99667.59;5034961;28;20053;-71
2022/09/06 03:18:28;;;;;;;2.70;1.27;;;;;;;8.75;66.64;99668.38;5034542;28;20069;-70
2022/09/06 03:20:56;;;;;;;2.58;1.30;;;;;;;8.76;66.77;99661.69;5033757;28;20056;-75
2022/09/06 03:23:25;;;;;;;4.50;1.50;;;;;;;8.89;66.68;99655.22;5034491;28;20049;-76
2022/09/06 03:25:53;;;;;;;2.60;1.20;;;;;;;8.96;66.26;99663.09;5035095;28;20520;-72
2022/09/06 03:28:21;;;;;;;2.13;1.42;;;;;;;9.00;66.17;99667.69;5034476;28;20049;-71
2022/09/06 03:30:50;;;;;;;2.28;1.52;;;;;;;8.99;66.42;99660.53;5039420;28;20049;-71
2022/09/06 03:33:18;;;;;;;2.97;1.30;;;;;;;8.95;66.16;99667.81;5054508;28;20136;-71
2022/09/06 03:35:55;;;;;;;3.90;1.40;;;;;;;8.97;66.16;99659.19;5054812;28;20500;-70
2022/09/06 03:38:24;;;;;;;2.55;1.52;;;;;;;9.02;66.17;99665.44;5054122;28;20131;-71
2022/09/06 03:40:54;;;;;;;4.10;1.45;;;;;;;9.04;65.46;99673.44;5048519;28;20056;-72
2022/09/06 03:43:23;;;;;;;7.18;1.50;;;;;;;8.98;66.23;99671.94;5034113;28;20046;-72
2022/09/06 03:45:52;;;;;;;3.17;1.60;;;;;;;8.96;66.22;99671.44;5034640;28;20240;-75
2022/09/06 03:48:21;;;;;;;5.55;1.40;;;;;;;8.95;65.93;99676.16;5034093;28;20540;-71
2022/09/06 03:50:53;;;;;;;4.10;1.50;;;;;;;8.93;66.81;99672.91;5034613;28;20045;-71
2022/09/06 03:53:21;;;;;;;2.13;1.30;;;;;;;8.91;66.59;99668.78;5046197;28;20057;-71
2022/09/06 03:55:52;;;;;;;3.63;1.88;;;;;;;8.87;66.89;99678.88;5053912;28;20443;-72
2022/09/06 03:58:22;;;;;;;2.70;1.77;;;;;;;8.87;66.76;99673.34;5053791;28;20045;-72
2022/09/06 04:00:58;;;;;;;2.45;1.30;;;;;;;8.87;66.64;99679.72;5053916;28;20053;-71
2022/09/06 04:03:27;;;;;;;1.75;1.15;;;;;;;8.92;67.31;99681.53;5053676;28;20530;-71
2022/09/06 04:05:54;;;;;;;2.30;1.60;;;;;;;8.98;66.74;99683.88;5053640;28;20071;-75
2022/09/06 04:08:21;;;;;;;1.85;1.17;;;;;;;9.04;65.89;99679.81;5053509;28;20541;-75
2022/09/06 04:10:58;;;;;;;2.20;1.27;;;;;;;9.09;66.64;99685.19;5053866;28;20044;-71
2022/09/06 04:13:26;;;;;;;3.72;1.35;;;;;;;9.10;66.21;99675.75;5043129;28;20095;-72
2022/09/06 04:15:53;;;;;;;1.90;1.20;;;;;;;9.10;66.06;99688.81;5033865;28;20045;-71
2022/09/06 04:18:21;;;;;;;2.25;1.15;;;;;;;9.12;66.00;99683.75;5033302;28;20069;-70
2022/09/06 04:20:50;;;;;;;3.63;1.30;;;;;;;9.18;65.62;99686.06;5034095;28;20137;-71
2022/09/06 04:23:18;;;;;;;3.17;1.60;;;;;;;9.15;65.31;99681.16;5033573;28;20049;-72
2022/09/06 04:25:46;;;;;;;4.90;0.90;;;;;;;9.16;65.75;99682.81;5033282;28;20416;-73
2022/09/06 04:28:14;;;;;;;2.08;0.95;;;;;;;9.16;66.15;99677.25;5033238;28;20056;-71
2022/09/06 04:30:41;;;;;;;2.65;1.10;;;;;;;9.19;65.37;99679.38;5034084;28;20045;-71
2022/09/06 04:33:08;;;;;;;1.40;0.95;;;;;;;9.23;65.28;99682.31;5033434;28;20049;-71
2022/09/06 04:35:35;;;;;;;4.20;2.13;;;;;;;9.23;65.09;99683.16;5033704;28;20053;-72
2022/09/06 04:38:03;;;;;;;1.73;0.98;;;;;;;9.32;65.34;99685.16;5033591;28;20045;-72
2022/09/06 04:40:30;;;;;;;1.45;0.88;;;;;;;9.32;65.11;99687.94;5032828;28;20572;-71
2022/09/06 04:42:57;;;;;;;1.90;1.00;;;;;;;9.33;64.40;99679.28;5044921;28;20044;-71
2022/09/06 04:45:24;;;;;;;1.77;0.80;;;;;;;9.40;64.43;99681.56;5052868;28;20044;-73
2022/09/06 04:47:51;;;;;;;2.47;0.90;;;;;;;9.43;64.19;99680.91;5053268;28;20049;-72
2022/09/06 04:50:18;;;;;;;1.88;1.02;;;;;;;9.52;64.11;99684.53;5053102;28;20500;-71
2022/09/06 04:52:45;;;;;;;3.03;0.90;;;;;;;9.52;64.01;99679.00;5052998;28;20041;-72
2022/09/06 04:55:12;;;;;;;1.20;0.82;;;;;;;9.42;63.41;99679.28;5052987;28;20049;-72
2022/09/06 04:57:38;;;;;;;2.67;0.90;;;;;;;9.42;63.92;99673.75;5052711;28;20416;-71
2022/09/06 05:00:12;;;;;;;1.90;0.90;;;;;;;9.47;63.77;99681.94;5052851;28;20518;-72
2022/09/06 05:02:39;;;;;;;2.33;1.00;;;;;;;9.48;63.20;99678.00;5044880;28;20063;-71
2022/09/06 05:05:07;;;;;;;5.57;0.90;;;;;;;9.48;63.16;99686.34;5033018;28;20049;-71
2022/09/06 05:07:33;;;;;;;1.88;0.90;;;;;;;9.48;63.97;99680.78;5033282;28;20046;-71
2022/09/06 05:10:00;;;;;;;4.90;0.90;;;;;;;9.48;63.22;99678.00;5032613;28;20132;-70
2022/09/06 05:12:28;;;;;;;6.70;0.95;;;;;;;9.57;63.02;99681.63;5033697;28;20075;-72
2022/09/06 05:14:55;;;;;;;6.90;0.98;;;;;;;9.65;62.90;99678.06;5052649;28;20059;-71
2022/09/06 05:17:22;;;;;;;1.50;0.82;;;;;;;9.65;62.68;99670.53;5052112;28;20057;-72
2022/09/06 05:19:49;;;;;;;0.60;0.50;;;;;;;9.70;61.60;99666.78;5052458;28;20428;-72
2022/09/06 05:22:15;;;;;;;1.45;0.60;;;;;;;9.68;61.62;99671.88;5052492;28;20507;-72
2022/09/06 05:24:42;;;;;;;3.30;0.88;;;;;;;9.66;61.17;99674.97;5052906;28;20132;-72
2022/09/06 05:27:11;;;;;;;3.17;0.50;;;;;;;9.78;61.82;99671.53;5052561;28;20102;-72
2022/09/06 05:29:38;;;;;;;1.33;0.80;;;;;;;9.89;61.16;99670.91;5052095;28;20067;-72
2022/09/06 05:32:05;;;;;;;1.45;0.80;;;;;;;9.96;60.80;99678.75;5052011;28;20060;-71
2022/09/06 05:34:32;;;;;;;9.23;0.75;;;;;;;10.01;60.55;99670.28;5051824;28;20048;-71
2022/09/06 05:36:59;;;;;;;1.17;0.68;;;;;;;10.21;59.75;99675.19;5052231;28;20056;-72
2022/09/06 05:39:26;;;;;;;1.02;0.57;;;;;;;10.26;60.15;99672.25;5052510;28;20052;-70
2022/09/06 05:41:53;;;;;;;3.38;0.95;;;;;;;10.28;59.85;99670.81;5050612;28;20053;-70
2022/09/06 05:44:20;;;;;;;2.15;0.90;;;;;;;10.33;60.05;99672.63;5052099;28;20059;-69
2022/09/06 05:46:47;;;;;;;2.35;0.85;;;;;;;10.12;60.56;99674.38;5051798;28;20393;-69
2022/09/06 05:49:14;;;;;;;4.88;1.00;;;;;;;9.90;61.73;99680.06;5052556;28;20091;-73
2022/09/06 05:51:41;;;;;;;2.80;0.88;;;;;;;9.84;62.17;99675.81;5054552;28;20111;-70
2022/09/06 05:54:10;;;;;;;5.25;1.13;;;;;;;9.91;62.05;99676.13;5053521;28;20043;-69
2022/09/06 05:56:37;;;;;;;4.72;0.98;;;;;;;9.93;61.24;99673.84;5043767;28;20042;-69
2022/09/06 05:59:04;;;;;;;4.25;1.00;;;;;;;9.87;61.40;99677.94;5055797;28;20538;-69
2022/09/06 06:01:31;;;;;;;2.65;1.00;;;;;;;9.76;61.64;99684.94;5048874;28;20041;-69
2022/09/06 06:04:04;;;;;;;7.93;1.13;;;;;;;9.83;61.78;99680.53;5036737;28;20524;-69
2022/09/06 06:06:33;;;;;;;1.67;1.08;;;;;;;9.76;61.93;99677.44;5044233;28;20132;-71
2022/09/06 06:09:00;;;;;;;1.33;0.80;;;;;;;9.74;62.24;99687.22;5062106;28;20495;-69
2022/09/06 06:11:27;;;;;;;3.47;1.00;;;;;;;9.80;61.21;99675.63;5065848;28;20127;-69
2022/09/06 06:13:54;;;;;;;5.80;0.90;;;;;;;9.86;61.09;99684.66;5037116;28;20403;-69
2022/09/06 06:16:21;;;;;;;1.90;0.90;;;;;;;9.86;61.61;99673.53;5035584;28;20420;-68
2022/09/06 06:18:49;;;;;;;2.65;0.90;;;;;;;9.97;61.72;99688.72;5035929;28;20056;-70
2022/09/06 06:21:23;;;;;;;4.27;0.70;;;;;;;9.93;61.12;99684.97;5034550;28;20053;-69
2022/09/06 06:23:52;;;;;;;8.13;1.02;;;;;;;10.04;60.93;99675.97;5035665;28;20056;-70
2022/09/06 06:26:19;;;;;;;2.75;1.17;;;;;;;9.98;60.40;99690.38;5037379;28;20049;-69
2022/09/06 06:28:47;;;;;;;4.07;1.00;;;;;;;9.98;60.53;99682.03;5036888;28;20452;-69
2022/09/06 06:31:14;;;;;;;1.73;1.08;;;;;;;10.01;60.95;99692.50;5045987;28;20543;-70
2022/09/06 06:33:43;;;;;;;3.30;1.40;;;;;;;10.05;59.89;99685.16;5045927;28;20060;-69
2022/09/06 06:36:13;;;;;;;4.25;1.25;;;;;;;10.25;60.11;99681.75;5041986;28;20056;-69
2022/09/06 06:38:42;;;;;;;2.50;1.17;;;;;;;10.32;59.26;99677.34;5040246;28;20136;-69
2022/09/06 06:41:13;;;;;;;3.55;1.42;;;;;;;10.79;58.53;99676.31;5034561;28;20069;-70
2022/09/06 06:43:40;;;;;;;3.58;1.40;;;;;;;11.37;56.56;99678.38;5033910;28;20045;-69
2022/09/06 06:46:15;;;;;;;1.98;1.20;;;;;;;11.79;55.76;99674.59;5035745;28;20124;-69
2022/09/06 06:48:43;;;;;;;3.22;1.50;;;;;;;11.73;54.78;99666.75;5050501;28;20056;-70
2022/09/06 06:51:16;;;;;;;2.30;1.27;;;;;;;11.67;54.64;99668.94;5040056;28;20509;-70
2022/09/06 06:53:46;;;;;;;2.90;1.42;;;;;;;11.30;55.19;99669.75;5034827;28;20045;-69
2022/09/06 06:56:27;;;;;;;3.17;1.40;;;;;;;11.11;55.77;99672.91;5035098;28;20415;-70
2022/09/06 06:58:58;;;;;;;5.78;1.65;;;;;;;11.15;56.58;99681.44;5048931;28;20049;-70
2022/09/06 07:01:27;;;;;;;2.22;1.50;;;;;;;10.82;56.64;99672.88;5045073;28;20041;-69
2022/09/06 07:03:55;;;;;;;3.10;1.30;;;;;;;10.43;58.17;99678.66;5036498;28;20083;-70
2022/09/06 07:06:23;;;;;;;2.75;1.50;;;;;;;10.46;58.16;99682.72;5037379;28;20049;-68
2022/09/06 07:09:10;;;;;;;4.30;1.52;;;;;;;10.50;57.81;99678.13;5053910;28;20107;-69
2022/09/06 07:11:37;;;;;;;2.05;1.52;;;;;;;10.57;57.71;99678.47;5034279;28;20045;-70
2022/09/06 07:14:04;;;;;;;4.82;1.33;;;;;;;10.57;57.09;99681.25;5034478;28;20132;-70
2022/09/06 07:16:31;;;;;;;3.85;1.13;;;;;;;10.66;57.43;99666.16;5034859;28;20128;-69
2022/09/06 07:18:57;;;;;;;4.88;1.70;;;;;;;10.65;56.76;99672.88;5033676;28;20529;-68
2022/09/06 07:21:25;;;;;;;2.15;1.20;;;;;;;10.66;57.00;99676.50;5033569;28;20045;-68
2022/09/06 07:24:08;;;;;;;3.38;1.55;;;;;;;11.08;55.97;99672.78;5035084;28;20098;-69
2022/09/06 07:26:37;;;;;;;8.68;1.65;;;;;;;12.00;54.07;99655.09;5034181;28;20054;-69
2022/09/06 07:29:06;;;;;;;4.55;1.42;;;;;;;12.52;53.19;99668.28;5041074;28;20087;-70
2022/09/06 07:31:36;;;;;;;4.07;1.33;;;;;;;12.84;52.31;99663.84;5033479;28;20140;-68
2022/09/06 07:34:24;;;;;;;4.63;1.17;;;;;;;13.40;51.18;99662.22;5048323;28;20052;-69
2022/09/06 07:36:55;;;;;;;7.15;1.65;;;;;;;13.85;49.57;99648.94;5054489;28;20088;-69
2022/09/06 07:39:22;;;;;;;5.93;1.38;;;;;;;14.29;48.53;99659.13;5054437;28;20503;-70
2022/09/06 07:41:49;;;;;;;2.40;1.20;;;;;;;14.75;47.52;99654.88;5053891;28;20053;-70
2022/09/06 07:44:16;;;;;;;3.08;1.10;;;;;;;14.75;46.65;99650.09;5054199;28;20048;-70
2022/09/06 07:46:43;;;;;;;2.03;1.08;;;;;;;14.57;47.02;99654.38;5053979;28;20048;-70
2022/09/06 07:49:10;;;;;;;2.38;1.00;;;;;;;14.53;47.20;99656.25;5054428;28;20051;-70
2022/09/06 07:51:37;;;;;;;5.53;1.20;;;;;;;13.84;48.20;99648.13;5054030;28;20053;-69
2022/09/06 07:54:05;;;;;;;2.72;1.42;;;;;;;12.97;49.74;99656.34;5044797;28;20049;-69
2022/09/06 07:56:52;;;;;;;4.70;1.40;;;;;;;12.44;50.65;99655.22;5033834;28;20421;-69
2022/09/06 07:59:19;;;;;;;3.72;1.27;;;;;;;12.34;51.02;99644.47;5034130;28;20049;-69
2022/09/06 08:01:47;;;;;;;5.25;1.02;;;;;;;12.31;50.22;99655.50;5033645;28;20483;-69
2022/09/06 08:04:14;;;;;;;1.90;1.02;;;;;;;12.68;49.52;99643.34;5033758;28;20049;-69
2022/09/06 08:06:46;;;;;;;2.00;0.95;;;;;;;12.85;49.04;99654.34;5033682;28;20132;-68
2022/09/06 08:09:34;;;;;;;4.80;1.25;;;;;;;12.88;49.07;99659.22;5033291;28;20051;-69
2022/09/06 08:12:05;;;;;;;2.28;1.13;;;;;;;12.60;49.33;99647.84;5033119;28;20045;-69
2022/09/06 08:14:33;;;;;;;3.95;1.20;;;;;;;12.27;49.90;99649.81;5051501;28;20048;-69
2022/09/06 08:17:03;;;;;;;3.97;1.10;;;;;;;12.13;50.56;99654.00;5053065;28;20049;-70
2022/09/06 08:19:30;;;;;;;1.52;1.10;;;;;;;12.26;50.91;99645.38;5049110;28;20139;-70
2022/09/06 08:21:57;;;;;;;2.50;1.00;;;;;;;11.92;51.75;99654.00;5044792;28;20634;-69
2022/09/06 08:24:24;;;;;;;2.40;0.90;;;;;;;11.56;52.78;99642.56;5046367;28;20136;-69
2022/09/06 08:26:51;;;;;;;1.73;1.08;;;;;;;11.86;52.54;99644.22;5032274;28;20053;-69
2022/09/06 08:29:26;;;;;;;5.55;1.30;;;;;;;12.06;52.03;99639.81;5037847;28;20056;-69
2022/09/06 08:31:53;;;;;;;2.03;0.98;;;;;;;11.93;51.65;99644.47;5035150;28;20064;-69
2022/09/06 08:34:20;;;;;;;2.35;0.82;;;;;;;12.26;51.25;99636.19;5042669;28;20076;-69
2022/09/06 08:36:49;;;;;;;2.38;1.15;;;;;;;12.73;50.13;99635.56;5032009;28;20056;-68
2022/09/06 08:39:16;;;;;;;3.25;1.17;;;;;;;13.45;48.72;99625.69;5031722;28;20140;-69
2022/09/06 08:41:50;;;;;;;2.78;0.90;;;;;;;14.50;46.57;99626.16;5042363;28;20136;-69
2022/09/06 08:44:39;;;;;;;2.85;0.93;;;;;;;14.79;45.62;99620.19;5040673;28;20060;-70
2022/09/06 08:47:23;;;;;;;4.90;0.88;;;;;;;14.97;44.87;99612.25;5037911;28;20052;-69
2022/09/06 08:49:53;;;;;;;3.60;1.10;;;;;;;14.28;46.12;99618.34;5040598;28;20524;-68
2022/09/06 08:52:29;;;;;;;5.28;1.30;;;;;;;14.11;46.61;99610.19;5046184;28;20041;-69
2022/09/06 08:55:08;;;;;;;1.58;1.08;;;;;;;13.80;47.15;99624.03;5038087;28;20073;-70
2022/09/06 08:58:01;;;;;;;1.60;1.00;;;;;;;13.46;47.96;99616.13;5033596;28;20045;-69
2022/09/06 09:00:30;;;;;;;1.60;0.80;;;;;;;13.13;48.50;99626.59;5039292;28;20049;-69
2022/09/06 09:03:21;;;;;;;3.20;0.90;;;;;;;13.67;47.35;99619.59;5047659;28;20123;-69
2022/09/06 09:05:52;;;;;;;2.40;0.90;;;;;;;13.42;48.04;99618.81;5046109;28;20401;-68
2022/09/06 09:08:31;;;;;;;1.92;0.82;;;;;;;14.01;46.73;99613.50;5032598;28;20045;-68
2022/09/06 09:11:04;;;;;;;2.95;0.80;;;;;;;13.39;47.97;99641.06;5032494;28;20102;-67
2022/09/06 09:13:42;;;;;;;1.15;0.80;;;;;;;12.98;48.87;99632.81;5032727;28;20534;-68
2022/09/06 09:16:09;;;;;;;3.15;0.80;;;;;;;13.12;48.77;99631.38;5032132;28;20060;-69
2022/09/06 09:18:40;;;;;;;2.40;0.90;;;;;;;13.15;48.84;99624.28;5033049;28;20054;-69
2022/09/06 09:21:08;;;;;;;1.27;0.82;;;;;;;13.87;47.33;99624.25;5032706;28;20053;-69
2022/09/06 09:23:35;;;;;;;2.65;0.82;;;;;;;15.14;45.32;99621.16;5032143;28;20057;-69
2022/09/06 09:26:08;;;;;;;2.47;1.00;;;;;;;18.66;39.06;99621.22;5032076;28;20417;-69
2022/09/06 09:28:35;;;;;;;3.00;0.90;;;;;;;19.06;37.91;99612.78;5033180;28;20045;-71
2022/09/06 09:31:02;;;;;;;1.75;1.02;;;;;;;17.35;41.11;99616.81;5030783;28;20059;-69
2022/09/06 09:33:34;;;;;;;5.93;1.30;;;;;;;15.78;44.02;99621.56;5033725;28;20049;-69
2022/09/06 09:36:06;;;;;;;;;;;;;;;14.84;46.55;99619.94;5039594;28;20064;-70
2022/09/06 09:38:42;;;;;;;3.78;1.75;;;;;;;14.22;47.98;99614.13;5034461;28;19947;-69
2022/09/06 09:41:22;;;;;;;6.55;1.30;;;;;;;13.62;49.59;99619.88;5033906;28;20186;-70
2022/09/06 09:44:16;;;;;;;7.47;1.45;;;;;;;13.11;50.71;99618.56;5035649;28;20052;-70
2022/09/06 09:46:44;;;;;;;3.30;1.55;;;;;;;12.91;51.73;99623.03;5035827;28;20041;-70
2022/09/06 09:49:12;;;;;;;6.78;1.73;;;;;;;12.96;51.87;99622.00;5033277;28;20053;-70
2022/09/06 09:51:42;;;;;;;2.30;1.48;;;;;;;13.25;51.82;99618.22;5034143;28;20060;-69
2022/09/06 09:54:11;;;;;;;5.70;1.40;;;;;;;13.20;52.38;99615.69;5036971;28;20046;-70
2022/09/06 09:56:44;;;;;;;1.80;1.08;;;;;;;12.74;53.68;99614.84;5043203;28;20782;-69
2022/09/06 09:59:41;;;;;;;1.90;1.02;;;;;;;12.32;54.38;99615.31;5052046;28;20067;-69
2022/09/06 10:02:24;;;;;;;2.53;1.20;;;;;;;11.83;55.87;99617.03;5045234;28;20128;-69
2022/09/06 10:05:11;;;;;;;2.38;1.40;;;;;;;11.45;56.36;99613.47;5032270;28;20128;-70
2022/09/06 10:07:50;;;;;;;5.03;1.08;;;;;;;11.27;57.18;99611.94;5041967;28;20405;-71
2022/09/06 10:10:26;;;;;;;3.55;1.17;;;;;;;11.21;57.50;99613.28;5034690;28;20489;-71
2022/09/06 10:13:05;;;;;;;2.30;1.00;;;;;;;11.45;57.57;99621.81;5039959;28;20087;-69
2022/09/06 10:15:35;;;;;;;3.08;1.40;;;;;;;11.77;56.59;99614.75;5042988;28;20056;-69
2022/09/06 10:18:17;;;;;;;4.50;1.80;;;;;;;11.89;56.45;99610.09;5050597;28;20512;-69
2022/09/06 10:20:54;;;;;;;2.63;1.20;;;;;;;11.83;56.89;99611.44;5052065;28;20106;-72
2022/09/06 10:24:05;;;;;;;10.15;1.30;;;;;;;11.91;57.28;99606.97;5037934;28;20067;-74
2022/09/06 10:26:54;;;;;;;2.38;1.13;;;;;;;12.17;56.26;99608.38;5031833;28;20543;-70
2022/09/06 10:29:51;;;;;;;6.63;1.37;;;;;;;12.77;55.16;99607.78;5031413;28;20073;-71
2022/09/06 10:32:40;;;;;;;2.63;1.40;;;;;;;12.81;55.15;99603.94;5041298;28;20319;-68
2022/09/06 10:35:21;;;;;;;2.30;1.33;;;;;;;12.77;55.13;99614.16;5031539;28;20086;-69
2022/09/06 10:37:58;;;;;;;3.45;1.00;;;;;;;12.68;55.28;99605.06;5032802;28;20500;-69
2022/09/06 10:40:38;;;;;;;3.35;1.33;;;;;;;12.62;55.29;99605.66;5035218;28;20057;-69
2022/09/06 10:43:16;;;;;;;1.85;0.98;;;;;;;12.78;54.79;99595.44;5049944;28;20132;-69
2022/09/06 10:46:03;;;;;;;2.03;1.17;;;;;;;12.72;54.44;99605.19;5054059;28;20053;-69
2022/09/06 10:48:38;;;;;;;1.73;1.05;;;;;;;12.82;54.44;99610.31;5054991;28;20126;-70
2022/09/06 10:52:02;;;;;;;1.85;1.00;;;;;;;12.65;54.35;99607.75;5055144;28;20056;-69
2022/09/06 10:54:31;;;;;;;4.43;1.10;;;;;;;12.11;55.03;99611.72;5048626;28;20048;-69
2022/09/06 10:57:09;;;;;;;2.03;0.80;;;;;;;11.89;55.57;99606.47;5032838;28;20060;-68
2022/09/06 11:00:12;;;;;;;4.18;1.15;;;;;;;11.70;56.12;99606.97;5033332;28;20123;-69
2022/09/06 11:02:54;;;;;;;1.88;0.90;;;;;;;11.70;55.84;99618.09;5034908;28;20091;-70
2022/09/06 11:05:49;;;;;;;1.92;0.85;;;;;;;11.56;56.43;99617.50;5051104;28;20590;-70
2022/09/06 11:08:29;;;;;;;8.88;1.20;;;;;;;11.38;56.70;99613.19;5046977;28;20040;-71
2022/09/06 11:11:37;;;;;;;1.83;1.02;;;;;;;11.25;57.31;99605.88;5019280;28;20060;-70
2022/09/06 11:14:11;;;;;;;2.67;1.27;;;;;;;11.16;57.02;99612.66;5026564;28;20037;-69
2022/09/06 11:16:47;;;;;;;13.93;5.43;;;;;;;11.29;56.60;99611.59;5040669;28;20072;-69
2022/09/06 11:19:24;;;;;;;3.47;1.50;;;;;;;11.54;56.22;99600.28;5040808;28;20124;-73
2022/09/06 11:22:29;;;;;;;2.58;1.20;;;;;;;11.73;55.12;99603.50;5042649;28;20028;-71
2022/09/06 11:25:38;;;;;;;4.95;1.15;;;;;;;11.76;54.89;99607.56;5012804;28;20073;-69
2022/09/06 11:28:12;;;;;;;1.98;1.00;;;;;;;11.87;55.06;99601.25;5033158;28;20072;-72
2022/09/06 11:30:45;;;;;;;2.33;1.30;;;;;;;11.90;55.49;99599.75;5047525;28;20041;-69
2022/09/06 11:33:37;;;;;;;2.78;1.15;;;;;;;11.76;55.45;99600.03;5048395;28;20420;-68
2022/09/06 11:36:33;;;;;;;2.30;1.10;;;;;;;11.67;56.24;99602.06;5039079;28;20103;-69
2022/09/06 11:39:02;;;;;;;2.40;1.10;;;;;;;11.56;56.31;99592.44;5034080;28;20095;-69
2022/09/06 11:41:42;;;;;;;4.53;1.13;;;;;;;11.47;56.81;99591.66;5032802;28;20132;-70
2022/09/06 11:44:10;;;;;;;3.63;1.13;;;;;;;11.44;57.21;99586.78;5033232;28;20054;-70
2022/09/06 11:46:39;;;;;;;3.63;1.40;;;;;;;11.49;57.40;99594.13;5035983;28;20092;-71
2022/09/06 11:49:07;;;;;;;5.45;1.30;;;;;;;11.52;57.45;99588.66;5053901;28;20070;-69
2022/09/06 11:51:37;;;;;;;2.72;1.30;;;;;;;11.67;57.22;99590.09;5053615;28;20474;-71
2022/09/06 11:54:21;;;;;;;3.38;1.35;;;;;;;11.83;57.14;99591.09;5051621;28;20049;-69
2022/09/06 11:56:54;;;;;;;1.80;1.05;;;;;;;12.10;56.61;99580.22;5040097;28;20053;-72
2022/09/06 11:59:30;;;;;;;1.98;1.27;;;;;;;12.28;56.26;99573.31;5035000;28;20103;-70
2022/09/06 12:02:01;;;;;;;3.47;1.10;;;;;;;12.30;56.39;99573.81;5033979;28;20044;-70
2022/09/06 12:04:59;;;;;;;85.20;53.30;;;;;;;12.41;56.09;99566.63;5045208;28;20045;-70
2022/09/06 12:07:28;;;;;;;9.85;5.80;;;;;;;12.45;56.25;99562.00;5040700;28;20045;-69